Terminal Aerodrome Forecast
Issued by NWS Melbourne, FL

Home | Current Version | Previous Version | Text Only | Print | Product List | Glossary On
Versions: 1 2 3 4 5 6 7 8 9 10 11 12 13 14
443
FTUS42 KMLB 281120
TAFVRB
TAF
KVRB 281120Z 2812/2912 22004KT P6SM FEW002
     FM281400 25006KT P6SM SCT025 SCT250
     FM281900 13007KT P6SM VCTS SCT040CB SCT100
     FM290100 24005KT P6SM SCT060 BKN120=

USA.gov is the U.S. government's official web portal to all federal, state and local government web resources and services.